createdAt,value
2019-03-24T00:00:13.972Z,1011.01
2019-03-24T00:01:14.184Z,1011.00
2019-03-24T00:02:13.933Z,1011.06
2019-03-24T00:03:13.921Z,1011.01
2019-03-24T00:04:13.911Z,1011.01
2019-03-24T00:05:13.897Z,1011.02
2019-03-24T00:06:13.889Z,1011.01
2019-03-24T00:07:13.945Z,1010.89
2019-03-24T00:08:13.866Z,1010.91
2019-03-24T00:09:13.854Z,1010.90
2019-03-24T00:10:13.841Z,1010.85
2019-03-24T00:11:13.846Z,1010.90
2019-03-24T00:12:13.819Z,1010.91
2019-03-24T00:13:13.893Z,1010.84
2019-03-24T00:14:13.803Z,1010.91
2019-03-24T00:15:13.785Z,1010.77
2019-03-24T00:16:13.778Z,1010.82
2019-03-24T00:17:13.767Z,1010.86
2019-03-24T00:18:13.753Z,1010.82
2019-03-24T00:19:13.809Z,1010.80
2019-03-24T00:20:13.734Z,1010.81
2019-03-24T00:21:13.720Z,1010.81
2019-03-24T00:22:13.723Z,1010.77
2019-03-24T00:23:13.702Z,1010.71
2019-03-24T00:24:13.687Z,1010.73
2019-03-24T00:25:13.742Z,1010.71
2019-03-24T00:26:13.665Z,1010.70
2019-03-24T00:27:13.653Z,1010.67
2019-03-24T00:28:13.641Z,1010.63
2019-03-24T00:29:13.631Z,1010.66
2019-03-24T00:30:13.621Z,1010.63
2019-03-24T00:31:13.676Z,1010.60
2019-03-24T00:32:13.599Z,1010.61
2019-03-24T00:33:13.588Z,1010.61
2019-03-24T00:34:13.574Z,1010.58
2019-03-24T00:35:13.564Z,1010.60
2019-03-24T00:36:13.552Z,1010.59
2019-03-24T00:37:13.616Z,1010.64
2019-03-24T00:38:13.530Z,1010.59
2019-03-24T00:39:13.521Z,1010.56
2019-03-24T00:40:13.508Z,1010.60
2019-03-24T00:41:13.501Z,1010.56
2019-03-24T00:42:13.485Z,1010.59
2019-03-24T00:43:13.542Z,1010.54
2019-03-24T00:44:13.465Z,1010.61
2019-03-24T00:45:13.465Z,1010.55
2019-03-24T00:46:13.454Z,1010.60
2019-03-24T00:47:13.430Z,1010.61
2019-03-24T00:48:13.419Z,1010.61
2019-03-24T00:49:13.461Z,1010.69
2019-03-24T00:50:13.396Z,1010.59
2019-03-24T00:51:13.385Z,1010.61
2019-03-24T00:52:13.374Z,1010.67
2019-03-24T00:53:13.421Z,1010.66
2019-03-24T00:54:13.353Z,1010.61
2019-03-24T00:55:13.413Z,1010.59
2019-03-24T00:56:13.331Z,1010.58
2019-03-24T00:57:13.319Z,1010.59
2019-03-24T00:58:13.308Z,1010.52
2019-03-24T00:59:13.296Z,1010.54
2019-03-24T01:00:13.301Z,1010.51
2019-03-24T01:01:13.352Z,1010.50
2019-03-24T01:02:13.305Z,1010.53
2019-03-24T01:03:13.251Z,1010.54
2019-03-24T01:04:13.240Z,1010.54
2019-03-24T01:05:13.233Z,1010.60
2019-03-24T01:06:13.217Z,1010.51
2019-03-24T01:07:13.273Z,1010.51
2019-03-24T01:08:13.198Z,1010.55
2019-03-24T01:09:13.187Z,1010.48
2019-03-24T01:10:13.173Z,1010.47
2019-03-24T01:11:13.162Z,1010.50
2019-03-24T01:12:13.150Z,1010.44
2019-03-24T01:13:13.205Z,1010.39
2019-03-24T01:14:13.128Z,1010.49
2019-03-24T01:15:13.119Z,1010.43
2019-03-24T01:16:13.106Z,1010.45
2019-03-24T01:17:13.097Z,1010.45
2019-03-24T01:18:13.087Z,1010.38
2019-03-24T01:19:13.296Z,1010.47
2019-03-24T01:20:13.061Z,1010.43
2019-03-24T01:21:13.060Z,1010.41
2019-03-24T01:22:13.057Z,1010.48
2019-03-24T01:23:13.032Z,1010.52
2019-03-24T01:24:13.016Z,1010.45
2019-03-24T01:25:13.059Z,1010.36
2019-03-24T01:26:13.046Z,1010.43
2019-03-24T01:27:12.986Z,1010.34
2019-03-24T01:28:12.972Z,1010.29
2019-03-24T01:29:12.961Z,1010.40
2019-03-24T01:30:12.948Z,1010.28
2019-03-24T01:31:13.006Z,1010.33
2019-03-24T01:32:12.929Z,1010.31
2019-03-24T01:33:12.915Z,1010.30
2019-03-24T01:34:12.905Z,1010.30
2019-03-24T01:35:12.895Z,1010.26
2019-03-24T01:36:12.883Z,1010.27
2019-03-24T01:37:12.939Z,1010.28
2019-03-24T01:38:12.863Z,1010.28
2019-03-24T01:39:12.848Z,1010.20
2019-03-24T01:40:12.837Z,1010.27
2019-03-24T01:41:12.828Z,1010.21
2019-03-24T01:42:12.821Z,1010.18
2019-03-24T01:43:13.045Z,1010.26
2019-03-24T01:44:12.794Z,1010.23
2019-03-24T01:45:12.780Z,1010.33
2019-03-24T01:46:12.772Z,1010.23
2019-03-24T01:47:12.765Z,1010.23
2019-03-24T01:48:12.747Z,1010.26
2019-03-24T01:49:12.952Z,1010.24
2019-03-24T01:50:12.724Z,1010.22
2019-03-24T01:51:12.715Z,1010.26
2019-03-24T01:52:12.703Z,1010.29
2019-03-24T01:53:12.693Z,1010.25
2019-03-24T01:54:12.680Z,1010.24
2019-03-24T01:55:12.728Z,1010.23
2019-03-24T01:56:12.726Z,1010.14
2019-03-24T01:57:12.651Z,1010.23
2019-03-24T01:58:12.636Z,1010.19
2019-03-24T01:59:12.624Z,1010.21
2019-03-24T02:00:12.615Z,1010.18
2019-03-24T02:01:12.608Z,1010.12
2019-03-24T02:02:12.647Z,1010.17
2019-03-24T02:03:12.581Z,1010.18
2019-03-24T02:04:12.568Z,1010.21
2019-03-24T02:05:12.557Z,1010.21
2019-03-24T02:06:12.546Z,1010.20
2019-03-24T02:07:12.779Z,1010.22
2019-03-24T02:08:12.525Z,1010.24
2019-03-24T02:09:12.524Z,1010.20
2019-03-24T02:10:12.501Z,1010.21
2019-03-24T02:11:12.491Z,1010.20
2019-03-24T02:12:12.479Z,1010.11
2019-03-24T02:13:12.536Z,1010.16
2019-03-24T02:14:12.458Z,1010.08
2019-03-24T02:15:12.447Z,1010.09
2019-03-24T02:16:12.435Z,1010.15
2019-03-24T02:17:12.424Z,1010.11
2019-03-24T02:18:12.415Z,1010.03
2019-03-24T02:19:12.454Z,1010.13
2019-03-24T02:20:12.391Z,1010.11
2019-03-24T02:21:12.383Z,1010.09
2019-03-24T02:22:12.367Z,1010.11
2019-03-24T02:23:12.357Z,1010.08
2019-03-24T02:24:12.401Z,1010.07
2019-03-24T02:25:12.334Z,1010.05
2019-03-24T02:26:12.325Z,1010.08
2019-03-24T02:27:12.315Z,1010.04
2019-03-24T02:28:12.300Z,1010.03
2019-03-24T02:29:12.507Z,1010.08
2019-03-24T02:30:12.279Z,1010.07
2019-03-24T02:31:12.269Z,1010.11
2019-03-24T02:32:12.259Z,1010.01
2019-03-24T02:33:12.245Z,1010.01
2019-03-24T02:34:12.237Z,1010.01
2019-03-24T02:35:12.290Z,1010.00
2019-03-24T02:36:12.211Z,1010.03
2019-03-24T02:37:12.203Z,1010.00
2019-03-24T02:38:12.193Z,1010.10
2019-03-24T02:39:12.179Z,1010.07
2019-03-24T02:40:12.174Z,1010.05
2019-03-24T02:41:12.225Z,1010.02
2019-03-24T02:42:12.150Z,1010.03
2019-03-24T02:43:12.136Z,1009.96
2019-03-24T02:44:12.127Z,1010.00
2019-03-24T02:45:12.112Z,1010.03
2019-03-24T02:46:23.555Z,1010.01
2019-03-24T02:47:13.140Z,1010.01
2019-03-24T02:48:12.082Z,1009.99
2019-03-24T02:49:12.073Z,1009.96
2019-03-24T02:50:12.065Z,1009.93
2019-03-24T02:51:12.047Z,1009.98
2019-03-24T02:52:12.108Z,1010.02
2019-03-24T02:53:12.025Z,1009.94
2019-03-24T02:54:12.021Z,1009.92
2019-03-24T02:55:12.002Z,1009.97
2019-03-24T02:56:11.989Z,1009.96
2019-03-24T02:57:11.989Z,1009.93
2019-03-24T02:58:12.042Z,1009.91
2019-03-24T02:59:11.961Z,1009.87
2019-03-24T03:00:11.945Z,1009.95
2019-03-24T03:01:11.949Z,1009.92
2019-03-24T03:02:11.932Z,1009.95
2019-03-24T03:03:11.912Z,1009.97
2019-03-24T03:04:12.032Z,1009.95
2019-03-24T03:05:12.133Z,1009.90
2019-03-24T03:06:11.884Z,1009.90
2019-03-24T03:07:11.866Z,1009.91
2019-03-24T03:08:11.856Z,1009.91
2019-03-24T03:09:11.845Z,1009.93
2019-03-24T03:10:11.833Z,1009.93
2019-03-24T03:11:11.893Z,1009.88
2019-03-24T03:12:11.822Z,1009.92
2019-03-24T03:13:11.808Z,1009.85
2019-03-24T03:14:11.788Z,1009.81
2019-03-24T03:15:11.779Z,1009.89
2019-03-24T03:16:11.768Z,1009.93
2019-03-24T03:17:11.972Z,1009.81
2019-03-24T03:18:11.746Z,1009.88
2019-03-24T03:19:11.734Z,1009.82
2019-03-24T03:20:11.720Z,1009.84
2019-03-24T03:21:11.717Z,1009.90
2019-03-24T03:22:11.700Z,1009.80
2019-03-24T03:23:11.763Z,1009.79
2019-03-24T03:24:11.693Z,1009.87
2019-03-24T03:25:11.664Z,1009.96
2019-03-24T03:26:11.659Z,1009.90
2019-03-24T03:27:11.643Z,1009.95
2019-03-24T03:28:11.631Z,1009.92
2019-03-24T03:29:11.673Z,1009.87
2019-03-24T03:30:11.610Z,1009.78
2019-03-24T03:31:11.599Z,1009.78
2019-03-24T03:32:11.590Z,1009.79
2019-03-24T03:33:11.797Z,1009.85
2019-03-24T03:34:11.566Z,1009.85
2019-03-24T03:35:11.610Z,1009.86
2019-03-24T03:36:11.544Z,1009.83
2019-03-24T03:37:11.554Z,1009.77
2019-03-24T03:38:11.521Z,1009.76
2019-03-24T03:39:11.614Z,1009.84
2019-03-24T03:40:11.535Z,1009.77
2019-03-24T03:41:11.498Z,1009.74
2019-03-24T03:42:11.475Z,1009.71
2019-03-24T03:43:11.502Z,1009.78
2019-03-24T03:44:11.465Z,1009.84
2019-03-24T03:45:11.528Z,1009.82
2019-03-24T03:46:11.434Z,1009.81
2019-03-24T03:47:11.418Z,1009.85
2019-03-24T03:48:11.411Z,1009.84
2019-03-24T03:49:11.407Z,1009.82
2019-03-24T03:50:11.386Z,1009.74
2019-03-24T03:51:11.430Z,1009.82
2019-03-24T03:52:11.364Z,1009.79
2019-03-24T03:53:11.350Z,1009.78
2019-03-24T03:54:11.341Z,1009.83
2019-03-24T03:55:11.329Z,1009.84
2019-03-24T03:56:11.375Z,1009.71
2019-03-24T03:57:11.307Z,1009.75
2019-03-24T03:58:11.305Z,1009.78
2019-03-24T03:59:11.284Z,1009.70
2019-03-24T04:00:11.275Z,1009.67
2019-03-24T04:01:11.481Z,1009.70
2019-03-24T04:02:11.255Z,1009.70
2019-03-24T04:03:11.255Z,1009.71
2019-03-24T04:04:11.233Z,1009.63
2019-03-24T04:05:11.219Z,1009.63
2019-03-24T04:06:11.212Z,1009.56
2019-03-24T04:07:11.264Z,1009.63
2019-03-24T04:08:11.184Z,1009.65
2019-03-24T04:09:11.173Z,1009.63
2019-03-24T04:10:11.161Z,1009.58
2019-03-24T04:11:11.151Z,1009.54
2019-03-24T04:12:11.138Z,1009.50
2019-03-24T04:13:11.215Z,1009.50
2019-03-24T04:14:11.115Z,1009.50
2019-03-24T04:15:11.109Z,1009.41
2019-03-24T04:16:11.093Z,1009.51
2019-03-24T04:17:11.081Z,1009.53
2019-03-24T04:18:11.070Z,1009.45
2019-03-24T04:19:11.111Z,1009.46
2019-03-24T04:20:11.051Z,1009.58
2019-03-24T04:21:11.120Z,1009.61
2019-03-24T04:22:11.023Z,1009.56
2019-03-24T04:23:11.018Z,1009.61
2019-03-24T04:24:11.006Z,1009.57
2019-03-24T04:25:10.993Z,1009.57
2019-03-24T04:26:10.978Z,1009.52
2019-03-24T04:27:11.044Z,1009.51
2019-03-24T04:28:10.958Z,1009.49
2019-03-24T04:29:10.947Z,1009.48
2019-03-24T04:30:10.934Z,1009.51
2019-03-24T04:31:10.924Z,1009.48
2019-03-24T04:32:10.927Z,1009.56
2019-03-24T04:33:11.142Z,1009.51
2019-03-24T04:34:10.891Z,1009.50
2019-03-24T04:35:10.879Z,1009.49
2019-03-24T04:36:10.868Z,1009.51
2019-03-24T04:37:10.856Z,1009.44
2019-03-24T04:38:10.846Z,1009.46
2019-03-24T04:39:10.888Z,1009.49
2019-03-24T04:40:10.822Z,1009.49
2019-03-24T04:41:10.809Z,1009.50
2019-03-24T04:42:10.853Z,1009.54
2019-03-24T04:43:10.787Z,1009.54
2019-03-24T04:44:10.775Z,1009.52
2019-03-24T04:45:10.765Z,1009.55
2019-03-24T04:46:10.761Z,1009.52
2019-03-24T04:47:16.526Z,1009.50
2019-03-24T04:48:11.730Z,1009.55
2019-03-24T04:49:10.720Z,1009.48
2019-03-24T04:50:10.710Z,1009.42
2019-03-24T04:51:10.701Z,1009.49
2019-03-24T04:52:10.699Z,1009.45
2019-03-24T04:53:10.728Z,1009.39
2019-03-24T04:54:10.706Z,1009.42
2019-03-24T04:55:10.651Z,1009.44
2019-03-24T04:56:10.646Z,1009.39
2019-03-24T04:57:10.698Z,1009.41
2019-03-24T04:58:10.617Z,1009.42
2019-03-24T04:59:10.606Z,1009.40
2019-03-24T05:00:10.597Z,1009.35
2019-03-24T05:01:10.586Z,1009.39
2019-03-24T05:02:10.575Z,1009.45
2019-03-24T05:03:10.805Z,1009.40
2019-03-24T05:04:10.550Z,1009.46
2019-03-24T05:05:10.542Z,1009.36
2019-03-24T05:06:10.533Z,1009.40
2019-03-24T05:07:10.518Z,1009.37
2019-03-24T05:08:10.518Z,1009.44
2019-03-24T05:09:10.560Z,1009.49
2019-03-24T05:10:10.483Z,1009.46
2019-03-24T05:11:10.471Z,1009.45
2019-03-24T05:12:10.460Z,1009.47
2019-03-24T05:13:10.481Z,1009.52
2019-03-24T05:14:10.438Z,1009.54
2019-03-24T05:15:10.492Z,1009.48
2019-03-24T05:16:10.414Z,1009.49
2019-03-24T05:17:10.404Z,1009.46
2019-03-24T05:18:10.393Z,1009.52
2019-03-24T05:19:10.381Z,1009.47
2019-03-24T05:20:10.369Z,1009.48
2019-03-24T05:21:10.427Z,1009.52
2019-03-24T05:22:10.349Z,1009.47
2019-03-24T05:23:10.335Z,1009.44
2019-03-24T05:24:10.324Z,1009.52
2019-03-24T05:25:10.317Z,1009.42
2019-03-24T05:26:10.300Z,1009.45
2019-03-24T05:27:10.360Z,1009.41
2019-03-24T05:28:10.319Z,1009.40
2019-03-24T05:29:10.269Z,1009.38
2019-03-24T05:30:11.222Z,1009.37
2019-03-24T05:31:10.246Z,1009.43
2019-03-24T05:32:10.234Z,1009.41
2019-03-24T05:33:10.296Z,1009.43
2019-03-24T05:34:10.214Z,1009.46
2019-03-24T05:35:10.205Z,1009.41
2019-03-24T05:36:10.251Z,1009.42
2019-03-24T05:37:10.178Z,1009.39
2019-03-24T05:38:10.167Z,1009.44
2019-03-24T05:39:10.223Z,1009.46
2019-03-24T05:40:10.146Z,1009.38
2019-03-24T05:41:11.914Z,1009.35
2019-03-24T05:42:10.125Z,1009.40
2019-03-24T05:43:10.111Z,1009.37
2019-03-24T05:44:10.099Z,1009.36
2019-03-24T05:45:10.308Z,1009.44
2019-03-24T05:46:10.077Z,1009.41
2019-03-24T05:47:10.072Z,1009.40
2019-03-24T05:48:10.056Z,1009.37
2019-03-24T05:49:10.046Z,1009.41
2019-03-24T05:50:10.040Z,1009.41
2019-03-24T05:51:10.087Z,1009.37
2019-03-24T05:52:10.010Z,1009.39
2019-03-24T05:53:09.999Z,1009.36
2019-03-24T05:54:09.993Z,1009.33
2019-03-24T05:55:09.986Z,1009.35
2019-03-24T05:56:09.967Z,1009.33
2019-03-24T05:57:10.027Z,1009.34
2019-03-24T05:58:10.010Z,1009.36
2019-03-24T05:59:09.933Z,1009.26
2019-03-24T06:00:09.922Z,1009.25
2019-03-24T06:01:09.909Z,1009.25
2019-03-24T06:02:09.902Z,1009.36
2019-03-24T06:03:09.894Z,1009.32
2019-03-24T06:04:09.943Z,1009.29
2019-03-24T06:05:09.867Z,1009.27
2019-03-24T06:06:09.871Z,1009.24
2019-03-24T06:07:09.847Z,1009.26
2019-03-24T06:08:09.832Z,1009.26
2019-03-24T06:09:09.822Z,1009.22
2019-03-24T06:10:09.875Z,1009.22
2019-03-24T06:11:09.798Z,1009.28
2019-03-24T06:12:09.795Z,1009.25
2019-03-24T06:13:09.776Z,1009.21
2019-03-24T06:14:09.765Z,1009.27
2019-03-24T06:15:09.756Z,1009.19
2019-03-24T06:16:09.812Z,1009.24
2019-03-24T06:17:09.744Z,1009.21
2019-03-24T06:18:09.720Z,1009.27
2019-03-24T06:19:09.713Z,1009.21
2019-03-24T06:20:09.700Z,1009.27
2019-03-24T06:21:09.687Z,1009.24
2019-03-24T06:22:09.743Z,1009.21
2019-03-24T06:23:09.664Z,1009.26
2019-03-24T06:24:09.654Z,1009.26
2019-03-24T06:25:09.656Z,1009.24
2019-03-24T06:26:09.636Z,1009.29
2019-03-24T06:27:09.619Z,1009.25
2019-03-24T06:28:09.857Z,1009.21
2019-03-24T06:29:09.597Z,1009.15
2019-03-24T06:30:09.596Z,1009.15
2019-03-24T06:31:09.580Z,1009.10
2019-03-24T06:32:09.568Z,1009.14
2019-03-24T06:33:09.597Z,1009.13
2019-03-24T06:34:09.603Z,1009.09
2019-03-24T06:35:09.531Z,1009.09
2019-03-24T06:36:09.734Z,1009.05
2019-03-24T06:37:09.508Z,1009.03
2019-03-24T06:38:09.516Z,1009.12
2019-03-24T06:39:09.486Z,1009.09
2019-03-24T06:40:09.474Z,1009.10
2019-03-24T06:41:09.464Z,1009.13
2019-03-24T06:42:09.549Z,1009.18
2019-03-24T06:43:09.445Z,1009.15
2019-03-24T06:44:09.431Z,1009.17
2019-03-24T06:45:09.440Z,1009.24
2019-03-24T06:46:09.407Z,1009.25
2019-03-24T06:47:09.396Z,1009.19
2019-03-24T06:48:09.452Z,1009.23
2019-03-24T06:49:09.375Z,1009.18
2019-03-24T06:50:09.362Z,1009.21
2019-03-24T06:51:09.374Z,1009.18
2019-03-24T06:52:09.341Z,1009.18
2019-03-24T06:53:09.331Z,1009.18
2019-03-24T06:54:09.372Z,1009.23
2019-03-24T06:55:09.310Z,1009.15
2019-03-24T06:56:09.301Z,1009.17
2019-03-24T06:57:09.290Z,1009.15
2019-03-24T06:58:09.273Z,1009.09
2019-03-24T06:59:09.341Z,1009.08
2019-03-24T07:00:09.257Z,1009.17
2019-03-24T07:01:09.242Z,1009.05
2019-03-24T07:02:09.230Z,1009.16
2019-03-24T07:03:09.221Z,1009.09
2019-03-24T07:04:09.207Z,1009.17
2019-03-24T07:05:09.247Z,1009.09
2019-03-24T07:06:09.183Z,1009.11
2019-03-24T07:07:09.182Z,1009.15
2019-03-24T07:08:09.173Z,1009.12
2019-03-24T07:09:09.366Z,1009.17
2019-03-24T07:10:09.143Z,1009.17
2019-03-24T07:11:13.518Z,1009.12
2019-03-24T07:12:09.118Z,1009.12
2019-03-24T07:13:09.115Z,1009.10
2019-03-24T07:14:09.092Z,1009.10
2019-03-24T07:15:09.170Z,1009.13
2019-03-24T07:16:09.070Z,1009.11
2019-03-24T07:17:09.057Z,1009.13
2019-03-24T07:18:09.073Z,1009.07
2019-03-24T07:19:09.101Z,1009.09
2019-03-24T07:20:09.023Z,1009.05
2019-03-24T07:21:09.013Z,1009.09
2019-03-24T07:22:09.000Z,1008.99
2019-03-24T07:23:08.992Z,1009.04
2019-03-24T07:24:08.978Z,1009.01
2019-03-24T07:25:09.022Z,1009.07
2019-03-24T07:26:09.008Z,1009.09
2019-03-24T07:27:08.945Z,1009.01
2019-03-24T07:28:08.935Z,1009.07
2019-03-24T07:29:08.926Z,1009.05
2019-03-24T07:30:08.911Z,1009.06
2019-03-24T07:31:08.977Z,1008.96
2019-03-24T07:32:08.889Z,1009.01
2019-03-24T07:33:08.884Z,1009.04
2019-03-24T07:34:08.868Z,1008.96
2019-03-24T07:35:08.857Z,1009.03
2019-03-24T07:36:08.845Z,1009.03
2019-03-24T07:37:08.886Z,1009.01
2019-03-24T07:38:08.826Z,1009.02
2019-03-24T07:39:08.879Z,1009.07
2019-03-24T07:40:08.802Z,1009.06
2019-03-24T07:41:08.790Z,1009.02
2019-03-24T07:42:08.780Z,1009.06
2019-03-24T07:43:08.766Z,1009.02
2019-03-24T07:44:08.755Z,1009.02
2019-03-24T07:45:08.820Z,1009.00
2019-03-24T07:46:08.734Z,1009.06
2019-03-24T07:47:08.723Z,1009.04
2019-03-24T07:48:18.445Z,1008.96
2019-03-24T07:49:09.698Z,1009.00
2019-03-24T07:50:08.687Z,1008.95
2019-03-24T07:51:08.749Z,1008.91
2019-03-24T07:52:08.666Z,1008.97
2019-03-24T07:53:11.018Z,1008.94
2019-03-24T07:54:08.646Z,1008.94
2019-03-24T07:55:08.632Z,1008.93
2019-03-24T07:56:08.620Z,1008.94
2019-03-24T07:57:08.851Z,1009.01
2019-03-24T07:58:08.601Z,1008.98
2019-03-24T07:59:08.590Z,1008.92
2019-03-24T08:00:08.577Z,1008.86
2019-03-24T08:01:08.566Z,1008.96
2019-03-24T08:02:08.553Z,1008.93
2019-03-24T08:03:08.609Z,1008.86
2019-03-24T08:04:08.531Z,1008.92
2019-03-24T08:05:08.525Z,1008.79
2019-03-24T08:06:08.546Z,1008.89
2019-03-24T08:07:08.497Z,1008.78
2019-03-24T08:08:08.486Z,1008.83
2019-03-24T08:09:08.691Z,1008.78
2019-03-24T08:10:08.467Z,1008.83
2019-03-24T08:11:08.455Z,1008.88
2019-03-24T08:12:08.472Z,1008.83
2019-03-24T08:13:08.430Z,1008.83
2019-03-24T08:14:08.420Z,1008.76
2019-03-24T08:15:08.477Z,1008.80
2019-03-24T08:16:08.396Z,1008.82
2019-03-24T08:17:08.385Z,1008.84
2019-03-24T08:18:08.376Z,1008.84
2019-03-24T08:19:08.362Z,1008.85
2019-03-24T08:20:08.353Z,1008.76
2019-03-24T08:21:08.411Z,1008.84
2019-03-24T08:22:08.335Z,1008.70
2019-03-24T08:23:08.323Z,1008.78
2019-03-24T08:24:08.308Z,1008.73
2019-03-24T08:25:08.313Z,1008.85
2019-03-24T08:26:08.289Z,1008.78
2019-03-24T08:27:08.329Z,1008.69
2019-03-24T08:28:08.261Z,1008.75
2019-03-24T08:29:08.255Z,1008.78
2019-03-24T08:30:08.293Z,1008.76
2019-03-24T08:31:08.229Z,1008.72
2019-03-24T08:32:08.217Z,1008.78
2019-03-24T08:33:08.210Z,1008.70
2019-03-24T08:34:08.193Z,1008.68
2019-03-24T08:35:08.399Z,1008.70
2019-03-24T08:36:08.172Z,1008.78
2019-03-24T08:37:08.165Z,1008.75
2019-03-24T08:38:08.150Z,1008.70
2019-03-24T08:39:08.142Z,1008.71
2019-03-24T08:40:08.127Z,1008.75
2019-03-24T08:41:08.238Z,1008.67
2019-03-24T08:42:08.138Z,1008.69
2019-03-24T08:43:08.092Z,1008.63
2019-03-24T08:44:08.080Z,1008.68
2019-03-24T08:45:08.071Z,1008.67
2019-03-24T08:46:08.059Z,1008.66
2019-03-24T08:47:08.121Z,1008.64
2019-03-24T08:48:08.036Z,1008.71
2019-03-24T08:49:08.028Z,1008.68
2019-03-24T08:50:08.013Z,1008.68
2019-03-24T08:51:08.001Z,1008.63
2019-03-24T08:52:07.990Z,1008.71
2019-03-24T08:53:08.047Z,1008.65
2019-03-24T08:54:07.970Z,1008.60
2019-03-24T08:55:07.959Z,1008.65
2019-03-24T08:56:07.952Z,1008.58
2019-03-24T08:57:07.935Z,1008.64
2019-03-24T08:58:07.927Z,1008.56
2019-03-24T08:59:07.985Z,1008.57
2019-03-24T09:00:07.902Z,1008.65
2019-03-24T09:01:07.888Z,1008.60
2019-03-24T09:02:07.878Z,1008.61
2019-03-24T09:03:07.866Z,1008.58
2019-03-24T09:04:07.855Z,1008.52
2019-03-24T09:05:07.917Z,1008.60
2019-03-24T09:06:07.831Z,1008.52
2019-03-24T09:07:07.829Z,1008.58
2019-03-24T09:08:07.809Z,1008.51
2019-03-24T09:09:07.804Z,1008.57
2019-03-24T09:10:07.790Z,1008.53
2019-03-24T09:11:07.844Z,1008.49
2019-03-24T09:12:07.766Z,1008.52
2019-03-24T09:13:07.753Z,1008.54
2019-03-24T09:14:07.741Z,1008.61
2019-03-24T09:15:07.729Z,1008.53
2019-03-24T09:16:07.720Z,1008.55
2019-03-24T09:17:07.785Z,1008.48
2019-03-24T09:18:07.696Z,1008.48
2019-03-24T09:19:07.686Z,1008.50
2019-03-24T09:20:07.672Z,1008.51
2019-03-24T09:21:07.661Z,1008.50
2019-03-24T09:22:07.652Z,1008.39
2019-03-24T09:23:07.707Z,1008.40
2019-03-24T09:24:07.628Z,1008.45
2019-03-24T09:25:07.622Z,1008.46
2019-03-24T09:26:07.607Z,1008.37
2019-03-24T09:27:07.596Z,1008.43
2019-03-24T09:28:09.252Z,1008.40
2019-03-24T09:29:07.626Z,1008.42
2019-03-24T09:30:07.562Z,1008.41
2019-03-24T09:31:07.619Z,1008.40
2019-03-24T09:32:07.540Z,1008.44
2019-03-24T09:33:07.526Z,1008.39
2019-03-24T09:34:07.515Z,1008.47
2019-03-24T09:35:07.507Z,1008.44
2019-03-24T09:36:07.495Z,1008.35
2019-03-24T09:37:07.725Z,1008.29
2019-03-24T09:38:07.474Z,1008.29
2019-03-24T09:39:07.459Z,1008.33
2019-03-24T09:40:07.451Z,1008.35
2019-03-24T09:41:07.442Z,1008.34
2019-03-24T09:42:07.425Z,1008.34
2019-03-24T09:43:07.658Z,1008.24
2019-03-24T09:44:07.445Z,1008.30
2019-03-24T09:45:07.402Z,1008.22
2019-03-24T09:46:07.381Z,1008.26
2019-03-24T09:47:07.408Z,1008.24
2019-03-24T09:48:07.357Z,1008.24
2019-03-24T09:49:07.401Z,1008.19
2019-03-24T09:50:07.337Z,1008.21
2019-03-24T09:51:07.327Z,1008.23
2019-03-24T09:52:07.328Z,1008.18
2019-03-24T09:53:07.302Z,1008.16
2019-03-24T09:54:07.360Z,1008.17
2019-03-24T09:55:07.287Z,1008.13
2019-03-24T09:56:07.270Z,1008.09
2019-03-24T09:57:07.258Z,1008.12
2019-03-24T09:58:07.248Z,1008.13
2019-03-24T09:59:07.236Z,1008.10
2019-03-24T10:00:07.293Z,1008.02
2019-03-24T10:01:07.211Z,1008.07
2019-03-24T10:02:07.200Z,1008.06
2019-03-24T10:03:07.192Z,1008.04
2019-03-24T10:04:07.179Z,1008.04
2019-03-24T10:05:07.168Z,1007.98
2019-03-24T10:06:07.207Z,1007.99
2019-03-24T10:07:07.143Z,1007.95
2019-03-24T10:08:07.135Z,1007.97
2019-03-24T10:09:07.121Z,1007.97
2019-03-24T10:10:07.110Z,1007.96
2019-03-24T10:11:07.342Z,1007.91
2019-03-24T10:12:07.086Z,1007.94
2019-03-24T10:13:07.077Z,1007.93
2019-03-24T10:14:07.066Z,1007.98
2019-03-24T10:15:07.054Z,1007.84
2019-03-24T10:16:07.041Z,1007.82
2019-03-24T10:17:07.084Z,1007.88
2019-03-24T10:18:07.020Z,1007.79
2019-03-24T10:19:13.981Z,1007.78
2019-03-24T10:20:07.994Z,1007.72
2019-03-24T10:21:06.984Z,1007.84
2019-03-24T10:22:07.041Z,1007.81
2019-03-24T10:23:06.967Z,1007.75
2019-03-24T10:24:07.953Z,1007.72
2019-03-24T10:25:06.940Z,1007.67
2019-03-24T10:26:06.928Z,1007.66
2019-03-24T10:27:06.926Z,1007.63
2019-03-24T10:28:07.149Z,1007.62
2019-03-24T10:29:06.895Z,1007.66
2019-03-24T10:30:06.884Z,1007.66
2019-03-24T10:31:06.873Z,1007.60
2019-03-24T10:32:06.862Z,1007.60
2019-03-24T10:33:06.852Z,1007.61
2019-03-24T10:34:06.908Z,1007.62
2019-03-24T10:35:06.830Z,1007.60
2019-03-24T10:36:06.816Z,1007.57
2019-03-24T10:37:06.804Z,1007.53
2019-03-24T10:38:06.794Z,1007.52
2019-03-24T10:39:06.784Z,1007.49
2019-03-24T10:40:06.837Z,1007.47
2019-03-24T10:41:06.760Z,1007.53
2019-03-24T10:42:06.754Z,1007.52
2019-03-24T10:43:06.737Z,1007.56
2019-03-24T10:44:06.726Z,1007.50
2019-03-24T10:45:06.720Z,1007.56
2019-03-24T10:46:06.774Z,1007.48
2019-03-24T10:47:06.693Z,1007.55
2019-03-24T10:48:06.683Z,1007.48
2019-03-24T10:49:06.671Z,1007.50
2019-03-24T10:50:06.661Z,1007.47
2019-03-24T10:51:06.656Z,1007.42
2019-03-24T10:52:06.705Z,1007.54
2019-03-24T10:53:06.631Z,1007.48
2019-03-24T10:54:06.617Z,1007.45
2019-03-24T10:55:06.605Z,1007.44
2019-03-24T10:56:06.596Z,1007.49
2019-03-24T10:57:06.586Z,1007.52
2019-03-24T10:58:06.641Z,1007.49
2019-03-24T10:59:06.562Z,1007.44
2019-03-24T11:00:06.551Z,1007.46
2019-03-24T11:01:06.541Z,1007.40
2019-03-24T11:02:06.532Z,1007.33
2019-03-24T11:03:06.519Z,1007.34
2019-03-24T11:04:06.578Z,1007.43
2019-03-24T11:05:06.497Z,1007.38
2019-03-24T11:06:06.484Z,1007.35
2019-03-24T11:07:06.474Z,1007.43
2019-03-24T11:08:06.464Z,1007.37
2019-03-24T11:09:06.452Z,1007.27
2019-03-24T11:10:06.507Z,1007.37
2019-03-24T11:11:06.429Z,1007.34
2019-03-24T11:12:06.422Z,1007.39
2019-03-24T11:13:06.416Z,1007.33
2019-03-24T11:14:06.397Z,1007.36
2019-03-24T11:15:06.387Z,1007.38
2019-03-24T11:16:06.435Z,1007.28
2019-03-24T11:17:06.364Z,1007.34
2019-03-24T11:18:06.353Z,1007.30
2019-03-24T11:19:06.341Z,1007.26
2019-03-24T11:20:06.398Z,1007.26
2019-03-24T11:21:08.763Z,1007.33
2019-03-24T11:22:06.309Z,1007.36
2019-03-24T11:23:06.298Z,1007.32
2019-03-24T11:24:06.293Z,1007.33
2019-03-24T11:25:06.277Z,1007.28
2019-03-24T11:26:06.526Z,1007.36
2019-03-24T11:27:06.253Z,1007.33
2019-03-24T11:28:06.244Z,1007.26
2019-03-24T11:29:06.230Z,1007.34
2019-03-24T11:30:06.220Z,1007.33
2019-03-24T11:31:06.208Z,1007.35
2019-03-24T11:32:06.254Z,1007.35
2019-03-24T11:33:06.189Z,1007.34
2019-03-24T11:34:06.175Z,1007.29
2019-03-24T11:35:06.163Z,1007.33
2019-03-24T11:36:06.235Z,1007.29
2019-03-24T11:37:06.139Z,1007.34
2019-03-24T11:38:06.129Z,1007.30
2019-03-24T11:39:06.116Z,1007.25
2019-03-24T11:40:06.107Z,1007.24
2019-03-24T11:41:06.095Z,1007.22
2019-03-24T11:42:06.327Z,1007.21
2019-03-24T11:43:06.076Z,1007.27
2019-03-24T11:44:06.066Z,1007.21
2019-03-24T11:45:06.053Z,1007.20
2019-03-24T11:46:06.039Z,1007.21
2019-03-24T11:47:06.027Z,1007.12
2019-03-24T11:48:06.230Z,1007.18
2019-03-24T11:49:06.005Z,1007.09
2019-03-24T11:50:05.997Z,1007.13
2019-03-24T11:51:05.982Z,1007.11
2019-03-24T11:52:05.971Z,1007.13
2019-03-24T11:53:05.959Z,1007.10
2019-03-24T11:54:06.024Z,1007.08
2019-03-24T11:55:05.937Z,1007.08
2019-03-24T11:56:05.925Z,1007.09
2019-03-24T11:57:05.924Z,1007.07
2019-03-24T11:58:06.383Z,1007.01
2019-03-24T11:59:05.893Z,1007.01
2019-03-24T12:00:05.964Z,1007.03
2019-03-24T12:01:05.871Z,1006.98
2019-03-24T12:02:05.860Z,1006.96
2019-03-24T12:03:05.847Z,1006.84
2019-03-24T12:04:05.836Z,1006.90
2019-03-24T12:05:05.825Z,1006.91